SBUG/URG METAR and TAF weather

Enter ICAO airport designator
Station Type Date Time Source
SBUG METAR 2019/08/25 20:00 UTC NOAA

SBUG 252000Z 12004KT 9999 SCT040TCU BKN100 21/15 Q1017 RERA


Station Type Date Time Source
SBUG Decoded METAR 2019/08/25 20:00 UTC NOAA

Station name not available
Aug 25, 2019 - 04:00 PM EDT / 2019.08.25 2000 UTC
Wind: from the ESE (120 degrees) at 5 MPH (4 KT):0
Visibility: greater than 7 mile(s):0
Sky conditions: mostly cloudy
Weather: Towering cumulus clouds observed
Temperature: 69 F (21 C)
Dew Point: 59 F (15 C)
Relative Humidity: 68%
Pressure (altimeter): 30.03 in. Hg (1017 hPa)
ob: SBUG 252000Z 12004KT 9999 SCT040TCU BKN100 21/15 Q1017 RERA
cycle: 20

Station Type Date Time Source
SBUG TAF 2019/08/25 18:45 UTC NOAA

TAF SBUG 251500Z 2518/2606 09009KT 9999 BKN030 FEW035TCU TX21/2518Z TN14/2606Z
BECMG 2518/2520 12012KT 8000 TSRA BKN010 BKN020 FEW035CB
RMK PDJ

Example: see airport list